Terminal Aerodrome Forecast
Issued by NWS

Home | Current Version | Previous Version | Text Only | Print | Product List | Glossary Off
Versions: 1 2 3 4 5 6 7 8 9 10 11 12 13 14 15 16 17 18

000
FTUS43 KABR 210201 AAA
TAFPIR
TAF AMD
KPIR 210201Z 2102/2124 17011KT 5SM -RA BR FEW029 BKN045 OVC070
     FM210300 13007KT P6SM VCSH OVC060
     FM211800 14011KT P6SM OVC040=

USA.gov is the U.S. government's official web portal to all federal, state and local government web resources and services.